sensor_id;sensor_type;location;lat;lon;timestamp;P1;durP1;ratioP1;P2;durP2;ratioP2
29044;SDS011;16133;49.486;12.176;2024-03-25T00:01:24;21.38;;;8.60;;
29044;SDS011;16133;49.486;12.176;2024-03-25T00:03:49;17.55;;;7.10;;
29044;SDS011;16133;49.486;12.176;2024-03-25T00:06:15;12.45;;;7.18;;
29044;SDS011;16133;49.486;12.176;2024-03-25T00:08:40;16.20;;;7.15;;
29044;SDS011;16133;49.486;12.176;2024-03-25T00:11:05;20.77;;;8.88;;
29044;SDS011;16133;49.486;12.176;2024-03-25T00:13:31;26.98;;;10.35;;
29044;SDS011;16133;49.486;12.176;2024-03-25T00:15:56;22.13;;;8.00;;
29044;SDS011;16133;49.486;12.176;2024-03-25T00:18:22;19.70;;;8.23;;
29044;SDS011;16133;49.486;12.176;2024-03-25T00:20:47;23.33;;;9.55;;
29044;SDS011;16133;49.486;12.176;2024-03-25T00:23:12;16.95;;;7.47;;
29044;SDS011;16133;49.486;12.176;2024-03-25T00:25:38;16.30;;;7.57;;
29044;SDS011;16133;49.486;12.176;2024-03-25T00:28:03;14.30;;;6.93;;
29044;SDS011;16133;49.486;12.176;2024-03-25T00:30:29;16.25;;;6.85;;
29044;SDS011;16133;49.486;12.176;2024-03-25T00:32:54;23.88;;;8.73;;
29044;SDS011;16133;49.486;12.176;2024-03-25T00:35:20;20.17;;;8.02;;
29044;SDS011;16133;49.486;12.176;2024-03-25T00:37:45;21.08;;;8.45;;
29044;SDS011;16133;49.486;12.176;2024-03-25T00:40:11;14.25;;;7.28;;
29044;SDS011;16133;49.486;12.176;2024-03-25T00:42:36;36.08;;;10.40;;
29044;SDS011;16133;49.486;12.176;2024-03-25T00:45:02;17.02;;;7.63;;
29044;SDS011;16133;49.486;12.176;2024-03-25T00:47:30;19.58;;;7.88;;
29044;SDS011;16133;49.486;12.176;2024-03-25T00:49:55;19.33;;;9.88;;
29044;SDS011;16133;49.486;12.176;2024-03-25T00:52:21;25.95;;;8.77;;
29044;SDS011;16133;49.486;12.176;2024-03-25T00:54:46;22.38;;;9.55;;
29044;SDS011;16133;49.486;12.176;2024-03-25T00:57:11;16.65;;;7.53;;
29044;SDS011;16133;49.486;12.176;2024-03-25T00:59:37;18.38;;;6.85;;
29044;SDS011;16133;49.486;12.176;2024-03-25T01:02:04;18.75;;;7.45;;
29044;SDS011;16133;49.486;12.176;2024-03-25T01:04:29;21.63;;;7.93;;
29044;SDS011;16133;49.486;12.176;2024-03-25T01:06:55;17.35;;;8.23;;
29044;SDS011;16133;49.486;12.176;2024-03-25T01:09:20;19.63;;;7.35;;
29044;SDS011;16133;49.486;12.176;2024-03-25T01:11:47;14.48;;;6.97;;
29044;SDS011;16133;49.486;12.176;2024-03-25T01:14:12;16.58;;;8.20;;
29044;SDS011;16133;49.486;12.176;2024-03-25T01:16:38;23.90;;;8.35;;
29044;SDS011;16133;49.486;12.176;2024-03-25T01:19:03;15.88;;;6.90;;
29044;SDS011;16133;49.486;12.176;2024-03-25T01:21:29;18.90;;;8.10;;
29044;SDS011;16133;49.486;12.176;2024-03-25T01:23:55;20.00;;;8.07;;
29044;SDS011;16133;49.486;12.176;2024-03-25T01:26:20;19.50;;;8.52;;
29044;SDS011;16133;49.486;12.176;2024-03-25T01:28:46;13.95;;;6.03;;
29044;SDS011;16133;49.486;12.176;2024-03-25T01:31:12;16.75;;;7.10;;
29044;SDS011;16133;49.486;12.176;2024-03-25T01:33:37;13.32;;;6.57;;
29044;SDS011;16133;49.486;12.176;2024-03-25T01:36:02;14.82;;;6.68;;
29044;SDS011;16133;49.486;12.176;2024-03-25T01:38:28;20.17;;;7.75;;
29044;SDS011;16133;49.486;12.176;2024-03-25T01:40:53;16.85;;;6.78;;
29044;SDS011;16133;49.486;12.176;2024-03-25T01:43:19;11.23;;;6.07;;
29044;SDS011;16133;49.486;12.176;2024-03-25T01:45:44;14.77;;;6.63;;
29044;SDS011;16133;49.486;12.176;2024-03-25T01:48:10;12.90;;;6.40;;
29044;SDS011;16133;49.486;12.176;2024-03-25T01:50:39;17.58;;;7.00;;
29044;SDS011;16133;49.486;12.176;2024-03-25T01:53:07;10.55;;;5.90;;
29044;SDS011;16133;49.486;12.176;2024-03-25T01:55:34;12.02;;;6.45;;
29044;SDS011;16133;49.486;12.176;2024-03-25T01:58:03;21.13;;;8.23;;
29044;SDS011;16133;49.486;12.176;2024-03-25T02:00:29;13.43;;;6.13;;
29044;SDS011;16133;49.486;12.176;2024-03-25T02:02:56;12.07;;;6.28;;
29044;SDS011;16133;49.486;12.176;2024-03-25T02:05:22;13.95;;;6.55;;
29044;SDS011;16133;49.486;12.176;2024-03-25T02:07:48;11.90;;;4.97;;
29044;SDS011;16133;49.486;12.176;2024-03-25T02:10:14;15.00;;;6.85;;
29044;SDS011;16133;49.486;12.176;2024-03-25T02:12:40;13.75;;;6.20;;
29044;SDS011;16133;49.486;12.176;2024-03-25T02:15:08;12.98;;;6.80;;
29044;SDS011;16133;49.486;12.176;2024-03-25T02:17:34;13.65;;;6.13;;
29044;SDS011;16133;49.486;12.176;2024-03-25T02:20:01;14.27;;;5.65;;
29044;SDS011;16133;49.486;12.176;2024-03-25T02:22:28;9.73;;;5.20;;
29044;SDS011;16133;49.486;12.176;2024-03-25T02:24:54;11.18;;;5.75;;
29044;SDS011;16133;49.486;12.176;2024-03-25T02:27:22;14.35;;;6.15;;
29044;SDS011;16133;49.486;12.176;2024-03-25T02:29:48;12.93;;;5.45;;
29044;SDS011;16133;49.486;12.176;2024-03-25T02:32:13;11.70;;;5.30;;
29044;SDS011;16133;49.486;12.176;2024-03-25T02:38:00;10.48;;;5.40;;
29044;SDS011;16133;49.486;12.176;2024-03-25T02:40:26;8.57;;;5.32;;
29044;SDS011;16133;49.486;12.176;2024-03-25T02:42:52;9.43;;;4.88;;
29044;SDS011;16133;49.486;12.176;2024-03-25T02:45:17;13.90;;;5.43;;
29044;SDS011;16133;49.486;12.176;2024-03-25T02:47:43;9.10;;;4.63;;
29044;SDS011;16133;49.486;12.176;2024-03-25T02:50:08;9.35;;;5.03;;
29044;SDS011;16133;49.486;12.176;2024-03-25T02:52:34;11.25;;;4.50;;
29044;SDS011;16133;49.486;12.176;2024-03-25T02:54:59;6.97;;;4.75;;
29044;SDS011;16133;49.486;12.176;2024-03-25T02:57:25;12.50;;;5.47;;
29044;SDS011;16133;49.486;12.176;2024-03-25T02:59:50;14.05;;;5.82;;
29044;SDS011;16133;49.486;12.176;2024-03-25T03:02:15;9.43;;;4.72;;
29044;SDS011;16133;49.486;12.176;2024-03-25T03:04:41;14.98;;;6.20;;
29044;SDS011;16133;49.486;12.176;2024-03-25T03:07:06;10.77;;;4.57;;
29044;SDS011;16133;49.486;12.176;2024-03-25T03:09:31;10.35;;;4.13;;
29044;SDS011;16133;49.486;12.176;2024-03-25T03:11:57;8.95;;;4.60;;
29044;SDS011;16133;49.486;12.176;2024-03-25T03:14:22;15.13;;;5.75;;
29044;SDS011;16133;49.486;12.176;2024-03-25T03:16:47;11.30;;;5.35;;
29044;SDS011;16133;49.486;12.176;2024-03-25T03:19:14;8.02;;;5.00;;
29044;SDS011;16133;49.486;12.176;2024-03-25T03:21:40;10.85;;;4.88;;
29044;SDS011;16133;49.486;12.176;2024-03-25T03:24:05;11.13;;;5.15;;
29044;SDS011;16133;49.486;12.176;2024-03-25T03:26:30;11.75;;;5.75;;
29044;SDS011;16133;49.486;12.176;2024-03-25T03:28:56;8.10;;;4.35;;
29044;SDS011;16133;49.486;12.176;2024-03-25T03:31:22;13.02;;;5.25;;
29044;SDS011;16133;49.486;12.176;2024-03-25T03:33:48;11.68;;;5.45;;
29044;SDS011;16133;49.486;12.176;2024-03-25T03:36:15;12.25;;;4.78;;
29044;SDS011;16133;49.486;12.176;2024-03-25T03:38:40;7.97;;;4.50;;
29044;SDS011;16133;49.486;12.176;2024-03-25T03:41:06;8.65;;;4.47;;
29044;SDS011;16133;49.486;12.176;2024-03-25T03:43:31;11.35;;;5.32;;
29044;SDS011;16133;49.486;12.176;2024-03-25T03:45:57;10.65;;;4.35;;
29044;SDS011;16133;49.486;12.176;2024-03-25T03:48:22;9.15;;;3.85;;
29044;SDS011;16133;49.486;12.176;2024-03-25T03:50:48;12.63;;;4.80;;
29044;SDS011;16133;49.486;12.176;2024-03-25T03:53:13;8.77;;;4.00;;
29044;SDS011;16133;49.486;12.176;2024-03-25T03:55:38;8.88;;;3.80;;
29044;SDS011;16133;49.486;12.176;2024-03-25T03:58:04;9.32;;;4.28;;
29044;SDS011;16133;49.486;12.176;2024-03-25T04:00:32;9.95;;;4.53;;
29044;SDS011;16133;49.486;12.176;2024-03-25T04:02:59;8.70;;;4.28;;
29044;SDS011;16133;49.486;12.176;2024-03-25T04:05:28;8.00;;;4.00;;
29044;SDS011;16133;49.486;12.176;2024-03-25T04:07:54;15.55;;;4.88;;
29044;SDS011;16133;49.486;12.176;2024-03-25T04:10:19;9.35;;;4.55;;
29044;SDS011;16133;49.486;12.176;2024-03-25T04:12:45;8.52;;;4.53;;
29044;SDS011;16133;49.486;12.176;2024-03-25T04:15:11;6.38;;;3.80;;
29044;SDS011;16133;49.486;12.176;2024-03-25T04:17:42;6.72;;;3.80;;
29044;SDS011;16133;49.486;12.176;2024-03-25T04:20:10;47.72;;;20.70;;
29044;SDS011;16133;49.486;12.176;2024-03-25T04:22:36;21.05;;;8.82;;
29044;SDS011;16133;49.486;12.176;2024-03-25T04:25:02;12.00;;;4.47;;
29044;SDS011;16133;49.486;12.176;2024-03-25T04:27:28;7.57;;;3.78;;
29044;SDS011;16133;49.486;12.176;2024-03-25T04:29:53;10.85;;;4.10;;
29044;SDS011;16133;49.486;12.176;2024-03-25T04:32:19;9.13;;;4.80;;
29044;SDS011;16133;49.486;12.176;2024-03-25T04:34:44;7.97;;;3.85;;
29044;SDS011;16133;49.486;12.176;2024-03-25T04:37:09;6.85;;;3.80;;
29044;SDS011;16133;49.486;12.176;2024-03-25T04:39:35;7.90;;;4.35;;
29044;SDS011;16133;49.486;12.176;2024-03-25T04:42:00;13.07;;;4.07;;
29044;SDS011;16133;49.486;12.176;2024-03-25T04:44:25;6.65;;;3.97;;
29044;SDS011;16133;49.486;12.176;2024-03-25T04:46:52;7.25;;;4.03;;
29044;SDS011;16133;49.486;12.176;2024-03-25T04:49:17;10.50;;;4.40;;
29044;SDS011;16133;49.486;12.176;2024-03-25T04:51:43;9.82;;;4.47;;
29044;SDS011;16133;49.486;12.176;2024-03-25T04:54:08;8.65;;;4.47;;
29044;SDS011;16133;49.486;12.176;2024-03-25T04:56:33;10.95;;;4.68;;
29044;SDS011;16133;49.486;12.176;2024-03-25T04:58:59;9.88;;;4.32;;
29044;SDS011;16133;49.486;12.176;2024-03-25T05:01:27;11.15;;;4.53;;
29044;SDS011;16133;49.486;12.176;2024-03-25T05:03:53;15.63;;;5.45;;
29044;SDS011;16133;49.486;12.176;2024-03-25T05:06:18;9.02;;;4.28;;
29044;SDS011;16133;49.486;12.176;2024-03-25T05:08:44;14.77;;;4.95;;
29044;SDS011;16133;49.486;12.176;2024-03-25T05:11:09;13.32;;;6.93;;
29044;SDS011;16133;49.486;12.176;2024-03-25T05:13:35;16.20;;;5.18;;
29044;SDS011;16133;49.486;12.176;2024-03-25T05:16:00;10.65;;;5.95;;
29044;SDS011;16133;49.486;12.176;2024-03-25T05:18:25;10.40;;;4.20;;
29044;SDS011;16133;49.486;12.176;2024-03-25T05:20:51;9.32;;;4.72;;
29044;SDS011;16133;49.486;12.176;2024-03-25T05:23:16;8.95;;;4.50;;
29044;SDS011;16133;49.486;12.176;2024-03-25T05:25:41;6.38;;;3.55;;
29044;SDS011;16133;49.486;12.176;2024-03-25T05:28:07;7.60;;;4.53;;
29044;SDS011;16133;49.486;12.176;2024-03-25T05:30:32;13.95;;;4.63;;
29044;SDS011;16133;49.486;12.176;2024-03-25T05:32:58;8.77;;;3.88;;
29044;SDS011;16133;49.486;12.176;2024-03-25T05:35:23;11.38;;;4.90;;
29044;SDS011;16133;49.486;12.176;2024-03-25T05:37:48;11.68;;;4.80;;
29044;SDS011;16133;49.486;12.176;2024-03-25T05:40:14;6.63;;;3.65;;
29044;SDS011;16133;49.486;12.176;2024-03-25T05:42:40;9.65;;;4.10;;
29044;SDS011;16133;49.486;12.176;2024-03-25T05:45:05;9.45;;;4.32;;
29044;SDS011;16133;49.486;12.176;2024-03-25T05:47:31;7.20;;;3.85;;
29044;SDS011;16133;49.486;12.176;2024-03-25T05:49:57;8.35;;;4.32;;
29044;SDS011;16133;49.486;12.176;2024-03-25T05:52:22;9.10;;;4.75;;
29044;SDS011;16133;49.486;12.176;2024-03-25T05:54:48;8.15;;;4.55;;
29044;SDS011;16133;49.486;12.176;2024-03-25T05:57:13;8.15;;;4.28;;
29044;SDS011;16133;49.486;12.176;2024-03-25T05:59:38;8.18;;;4.00;;
29044;SDS011;16133;49.486;12.176;2024-03-25T06:02:04;8.93;;;4.00;;
29044;SDS011;16133;49.486;12.176;2024-03-25T06:04:29;8.15;;;4.43;;
29044;SDS011;16133;49.486;12.176;2024-03-25T06:06:54;9.52;;;4.65;;
29044;SDS011;16133;49.486;12.176;2024-03-25T06:09:20;8.48;;;4.22;;
29044;SDS011;16133;49.486;12.176;2024-03-25T06:11:46;7.35;;;3.85;;
29044;SDS011;16133;49.486;12.176;2024-03-25T06:14:11;8.18;;;4.82;;
29044;SDS011;16133;49.486;12.176;2024-03-25T06:16:37;7.03;;;4.10;;
29044;SDS011;16133;49.486;12.176;2024-03-25T06:19:02;6.15;;;4.30;;
29044;SDS011;16133;49.486;12.176;2024-03-25T06:21:28;9.18;;;4.22;;
29044;SDS011;16133;49.486;12.176;2024-03-25T06:23:54;8.32;;;3.80;;
29044;SDS011;16133;49.486;12.176;2024-03-25T06:26:19;10.75;;;4.45;;
29044;SDS011;16133;49.486;12.176;2024-03-25T06:28:44;11.93;;;5.65;;
29044;SDS011;16133;49.486;12.176;2024-03-25T06:31:10;10.35;;;3.92;;
29044;SDS011;16133;49.486;12.176;2024-03-25T06:33:54;10.57;;;4.80;;
29044;SDS011;16133;49.486;12.176;2024-03-25T06:36:38;11.00;;;4.03;;
29044;SDS011;16133;49.486;12.176;2024-03-25T06:39:04;7.95;;;3.65;;
29044;SDS011;16133;49.486;12.176;2024-03-25T06:41:29;7.78;;;4.10;;
29044;SDS011;16133;49.486;12.176;2024-03-25T06:43:54;5.82;;;3.08;;
29044;SDS011;16133;49.486;12.176;2024-03-25T06:46:20;10.82;;;4.30;;
29044;SDS011;16133;49.486;12.176;2024-03-25T06:48:48;6.40;;;3.53;;
29044;SDS011;16133;49.486;12.176;2024-03-25T06:51:14;8.88;;;3.70;;
29044;SDS011;16133;49.486;12.176;2024-03-25T06:53:39;8.55;;;4.00;;
29044;SDS011;16133;49.486;12.176;2024-03-25T06:56:05;6.63;;;3.38;;
29044;SDS011;16133;49.486;12.176;2024-03-25T06:58:30;8.30;;;4.25;;
29044;SDS011;16133;49.486;12.176;2024-03-25T07:00:56;11.10;;;4.30;;
29044;SDS011;16133;49.486;12.176;2024-03-25T07:03:22;6.72;;;4.18;;
29044;SDS011;16133;49.486;12.176;2024-03-25T07:05:48;7.88;;;3.75;;
29044;SDS011;16133;49.486;12.176;2024-03-25T07:08:17;7.82;;;3.83;;
29044;SDS011;16133;49.486;12.176;2024-03-25T07:10:44;9.95;;;3.92;;
29044;SDS011;16133;49.486;12.176;2024-03-25T07:13:10;9.75;;;3.40;;
29044;SDS011;16133;49.486;12.176;2024-03-25T07:15:36;9.35;;;3.28;;
29044;SDS011;16133;49.486;12.176;2024-03-25T07:18:02;8.30;;;3.35;;
29044;SDS011;16133;49.486;12.176;2024-03-25T07:20:28;10.43;;;3.58;;
29044;SDS011;16133;49.486;12.176;2024-03-25T07:22:53;7.57;;;3.58;;
29044;SDS011;16133;49.486;12.176;2024-03-25T07:25:25;6.13;;;3.60;;
29044;SDS011;16133;49.486;12.176;2024-03-25T07:27:50;7.90;;;3.45;;
29044;SDS011;16133;49.486;12.176;2024-03-25T07:30:17;6.93;;;2.83;;
29044;SDS011;16133;49.486;12.176;2024-03-25T07:32:43;8.20;;;2.70;;
29044;SDS011;16133;49.486;12.176;2024-03-25T07:35:12;8.35;;;3.28;;
29044;SDS011;16133;49.486;12.176;2024-03-25T07:37:38;6.80;;;3.05;;
29044;SDS011;16133;49.486;12.176;2024-03-25T07:40:04;5.40;;;2.40;;
29044;SDS011;16133;49.486;12.176;2024-03-25T07:42:30;7.13;;;3.05;;
29044;SDS011;16133;49.486;12.176;2024-03-25T07:44:55;8.98;;;3.13;;
29044;SDS011;16133;49.486;12.176;2024-03-25T07:47:21;5.38;;;2.97;;
29044;SDS011;16133;49.486;12.176;2024-03-25T07:49:46;5.35;;;2.65;;
29044;SDS011;16133;49.486;12.176;2024-03-25T07:52:12;7.53;;;3.10;;
29044;SDS011;16133;49.486;12.176;2024-03-25T07:54:37;7.57;;;3.38;;
29044;SDS011;16133;49.486;12.176;2024-03-25T07:57:03;8.30;;;2.90;;
29044;SDS011;16133;49.486;12.176;2024-03-25T07:59:29;4.38;;;1.98;;
29044;SDS011;16133;49.486;12.176;2024-03-25T08:01:54;5.07;;;2.40;;
29044;SDS011;16133;49.486;12.176;2024-03-25T08:04:20;8.00;;;3.28;;
29044;SDS011;16133;49.486;12.176;2024-03-25T08:06:45;4.88;;;2.70;;
29044;SDS011;16133;49.486;12.176;2024-03-25T08:09:11;5.47;;;2.10;;
29044;SDS011;16133;49.486;12.176;2024-03-25T08:11:39;8.88;;;2.90;;
29044;SDS011;16133;49.486;12.176;2024-03-25T08:14:04;7.68;;;2.70;;
29044;SDS011;16133;49.486;12.176;2024-03-25T08:16:29;3.40;;;2.05;;
29044;SDS011;16133;49.486;12.176;2024-03-25T08:18:55;5.38;;;2.45;;
29044;SDS011;16133;49.486;12.176;2024-03-25T08:21:20;4.13;;;2.40;;
29044;SDS011;16133;49.486;12.176;2024-03-25T08:23:46;10.75;;;3.00;;
29044;SDS011;16133;49.486;12.176;2024-03-25T08:26:11;5.85;;;2.45;;
29044;SDS011;16133;49.486;12.176;2024-03-25T08:28:37;6.93;;;2.40;;
29044;SDS011;16133;49.486;12.176;2024-03-25T08:31:03;6.07;;;3.28;;
29044;SDS011;16133;49.486;12.176;2024-03-25T08:33:28;4.32;;;2.15;;
29044;SDS011;16133;49.486;12.176;2024-03-25T08:35:54;6.68;;;2.40;;
29044;SDS011;16133;49.486;12.176;2024-03-25T08:38:19;4.97;;;2.30;;
29044;SDS011;16133;49.486;12.176;2024-03-25T08:40:46;7.43;;;2.38;;
29044;SDS011;16133;49.486;12.176;2024-03-25T08:43:11;5.07;;;2.05;;
29044;SDS011;16133;49.486;12.176;2024-03-25T08:45:37;4.22;;;2.30;;
29044;SDS011;16133;49.486;12.176;2024-03-25T08:48:02;4.28;;;2.38;;
29044;SDS011;16133;49.486;12.176;2024-03-25T08:50:28;3.25;;;2.20;;
29044;SDS011;16133;49.486;12.176;2024-03-25T08:52:53;6.88;;;2.53;;
29044;SDS011;16133;49.486;12.176;2024-03-25T08:55:19;6.60;;;2.30;;
29044;SDS011;16133;49.486;12.176;2024-03-25T08:57:44;6.68;;;2.20;;
29044;SDS011;16133;49.486;12.176;2024-03-25T09:00:10;3.90;;;1.83;;
29044;SDS011;16133;49.486;12.176;2024-03-25T09:02:37;5.15;;;2.17;;
29044;SDS011;16133;49.486;12.176;2024-03-25T09:05:02;5.15;;;2.08;;
29044;SDS011;16133;49.486;12.176;2024-03-25T09:07:30;4.72;;;1.55;;
29044;SDS011;16133;49.486;12.176;2024-03-25T09:09:56;5.45;;;1.95;;
29044;SDS011;16133;49.486;12.176;2024-03-25T09:12:40;2.50;;;1.45;;
29044;SDS011;16133;49.486;12.176;2024-03-25T09:15:05;4.95;;;1.30;;
29044;SDS011;16133;49.486;12.176;2024-03-25T09:17:31;4.40;;;1.60;;
29044;SDS011;16133;49.486;12.176;2024-03-25T09:19:56;3.22;;;1.70;;
29044;SDS011;16133;49.486;12.176;2024-03-25T09:22:21;4.20;;;1.80;;
29044;SDS011;16133;49.486;12.176;2024-03-25T09:24:48;5.72;;;2.10;;
29044;SDS011;16133;49.486;12.176;2024-03-25T09:27:14;6.28;;;1.90;;
29044;SDS011;16133;49.486;12.176;2024-03-25T09:29:40;2.85;;;1.85;;
29044;SDS011;16133;49.486;12.176;2024-03-25T09:32:06;3.75;;;1.70;;
29044;SDS011;16133;49.486;12.176;2024-03-25T09:34:32;2.47;;;1.70;;
29044;SDS011;16133;49.486;12.176;2024-03-25T09:36:57;2.58;;;1.52;;
29044;SDS011;16133;49.486;12.176;2024-03-25T09:39:23;4.18;;;2.00;;
29044;SDS011;16133;49.486;12.176;2024-03-25T09:41:48;5.38;;;1.92;;
29044;SDS011;16133;49.486;12.176;2024-03-25T09:44:19;1.58;;;1.15;;
29044;SDS011;16133;49.486;12.176;2024-03-25T09:46:49;2.95;;;1.80;;
29044;SDS011;16133;49.486;12.176;2024-03-25T09:49:15;2.72;;;1.67;;
29044;SDS011;16133;49.486;12.176;2024-03-25T09:51:41;3.75;;;1.42;;
29044;SDS011;16133;49.486;12.176;2024-03-25T09:54:07;3.20;;;1.60;;
29044;SDS011;16133;49.486;12.176;2024-03-25T09:56:32;3.10;;;1.40;;
29044;SDS011;16133;49.486;12.176;2024-03-25T09:58:58;3.45;;;1.40;;
29044;SDS011;16133;49.486;12.176;2024-03-25T10:01:24;4.20;;;1.42;;
29044;SDS011;16133;49.486;12.176;2024-03-25T10:03:49;3.25;;;1.70;;
29044;SDS011;16133;49.486;12.176;2024-03-25T10:06:16;3.05;;;1.92;;
29044;SDS011;16133;49.486;12.176;2024-03-25T10:08:41;6.18;;;1.67;;
29044;SDS011;16133;49.486;12.176;2024-03-25T10:11:07;2.00;;;1.33;;
29044;SDS011;16133;49.486;12.176;2024-03-25T10:13:32;3.05;;;1.02;;
29044;SDS011;16133;49.486;12.176;2024-03-25T10:15:57;2.53;;;1.33;;
29044;SDS011;16133;49.486;12.176;2024-03-25T10:18:23;4.10;;;1.90;;
29044;SDS011;16133;49.486;12.176;2024-03-25T10:20:51;4.43;;;1.40;;
29044;SDS011;16133;49.486;12.176;2024-03-25T10:23:24;3.50;;;1.48;;
29044;SDS011;16133;49.486;12.176;2024-03-25T10:25:53;3.95;;;1.40;;
29044;SDS011;16133;49.486;12.176;2024-03-25T10:28:19;3.03;;;1.58;;
29044;SDS011;16133;49.486;12.176;2024-03-25T10:30:44;2.88;;;1.48;;
29044;SDS011;16133;49.486;12.176;2024-03-25T10:33:10;4.65;;;2.15;;
29044;SDS011;16133;49.486;12.176;2024-03-25T10:35:36;3.50;;;2.00;;
29044;SDS011;16133;49.486;12.176;2024-03-25T10:38:07;2.72;;;1.60;;
29044;SDS011;16133;49.486;12.176;2024-03-25T10:40:36;2.70;;;1.75;;
29044;SDS011;16133;49.486;12.176;2024-03-25T10:43:10;4.93;;;2.38;;
29044;SDS011;16133;49.486;12.176;2024-03-25T10:45:49;3.65;;;1.60;;
29044;SDS011;16133;49.486;12.176;2024-03-25T10:48:19;3.97;;;1.35;;
29044;SDS011;16133;49.486;12.176;2024-03-25T10:50:51;3.13;;;1.23;;
29044;SDS011;16133;49.486;12.176;2024-03-25T10:53:18;3.60;;;1.40;;
29044;SDS011;16133;49.486;12.176;2024-03-25T10:55:46;2.10;;;1.25;;
29044;SDS011;16133;49.486;12.176;2024-03-25T10:58:15;3.83;;;1.33;;
29044;SDS011;16133;49.486;12.176;2024-03-25T11:00:42;2.42;;;1.50;;
29044;SDS011;16133;49.486;12.176;2024-03-25T11:03:09;6.80;;;2.50;;
29044;SDS011;16133;49.486;12.176;2024-03-25T11:05:35;6.95;;;1.42;;
29044;SDS011;16133;49.486;12.176;2024-03-25T11:10:43;2.60;;;1.35;;
29044;SDS011;16133;49.486;12.176;2024-03-25T11:13:16;2.55;;;1.08;;
29044;SDS011;16133;49.486;12.176;2024-03-25T11:15:44;1.73;;;1.25;;
29044;SDS011;16133;49.486;12.176;2024-03-25T11:18:10;5.45;;;1.85;;
29044;SDS011;16133;49.486;12.176;2024-03-25T11:20:40;3.05;;;1.50;;
29044;SDS011;16133;49.486;12.176;2024-03-25T11:23:12;5.32;;;1.17;;
29044;SDS011;16133;49.486;12.176;2024-03-25T11:25:39;3.53;;;1.38;;
29044;SDS011;16133;49.486;12.176;2024-03-25T11:28:05;9.38;;;1.50;;
29044;SDS011;16133;49.486;12.176;2024-03-25T11:30:32;4.53;;;1.10;;
29044;SDS011;16133;49.486;12.176;2024-03-25T11:33:00;5.55;;;1.25;;
29044;SDS011;16133;49.486;12.176;2024-03-25T11:35:27;3.00;;;1.48;;
29044;SDS011;16133;49.486;12.176;2024-03-25T11:37:53;5.43;;;1.63;;
29044;SDS011;16133;49.486;12.176;2024-03-25T11:40:18;1.77;;;0.95;;
29044;SDS011;16133;49.486;12.176;2024-03-25T11:42:44;2.70;;;1.20;;
29044;SDS011;16133;49.486;12.176;2024-03-25T11:45:14;4.65;;;1.45;;
29044;SDS011;16133;49.486;12.176;2024-03-25T11:47:44;3.90;;;1.55;;
29044;SDS011;16133;49.486;12.176;2024-03-25T11:50:11;2.58;;;1.25;;
29044;SDS011;16133;49.486;12.176;2024-03-25T11:52:38;2.60;;;1.40;;
29044;SDS011;16133;49.486;12.176;2024-03-25T11:55:04;3.80;;;1.25;;
29044;SDS011;16133;49.486;12.176;2024-03-25T11:57:30;2.25;;;1.10;;
29044;SDS011;16133;49.486;12.176;2024-03-25T11:59:57;1.92;;;1.02;;
29044;SDS011;16133;49.486;12.176;2024-03-25T12:02:23;2.30;;;1.30;;
29044;SDS011;16133;49.486;12.176;2024-03-25T12:04:49;1.85;;;0.90;;
29044;SDS011;16133;49.486;12.176;2024-03-25T12:07:15;1.70;;;1.17;;
29044;SDS011;16133;49.486;12.176;2024-03-25T12:09:40;6.88;;;1.27;;
29044;SDS011;16133;49.486;12.176;2024-03-25T12:12:28;4.30;;;1.23;;
29044;SDS011;16133;49.486;12.176;2024-03-25T12:14:53;2.55;;;1.25;;
29044;SDS011;16133;49.486;12.176;2024-03-25T12:17:20;5.05;;;1.30;;
29044;SDS011;16133;49.486;12.176;2024-03-25T12:19:59;3.10;;;1.20;;
29044;SDS011;16133;49.486;12.176;2024-03-25T12:22:34;3.55;;;1.48;;
29044;SDS011;16133;49.486;12.176;2024-03-25T12:25:01;5.85;;;1.65;;
29044;SDS011;16133;49.486;12.176;2024-03-25T12:27:28;4.47;;;1.40;;
29044;SDS011;16133;49.486;12.176;2024-03-25T12:30:01;2.83;;;1.25;;
29044;SDS011;16133;49.486;12.176;2024-03-25T12:32:39;7.03;;;1.77;;
29044;SDS011;16133;49.486;12.176;2024-03-25T12:35:24;5.15;;;1.55;;
29044;SDS011;16133;49.486;12.176;2024-03-25T12:40:26;2.00;;;0.80;;
29044;SDS011;16133;49.486;12.176;2024-03-25T12:42:52;1.08;;;0.75;;
29044;SDS011;16133;49.486;12.176;2024-03-25T12:45:19;3.97;;;1.23;;
29044;SDS011;16133;49.486;12.176;2024-03-25T12:47:45;4.82;;;1.60;;
29044;SDS011;16133;49.486;12.176;2024-03-25T12:50:11;2.45;;;1.17;;
29044;SDS011;16133;49.486;12.176;2024-03-25T12:52:36;2.20;;;0.90;;
29044;SDS011;16133;49.486;12.176;2024-03-25T12:55:01;2.03;;;1.08;;
29044;SDS011;16133;49.486;12.176;2024-03-25T12:57:28;5.65;;;1.00;;
29044;SDS011;16133;49.486;12.176;2024-03-25T12:59:54;1.35;;;0.70;;
29044;SDS011;16133;49.486;12.176;2024-03-25T13:02:19;4.18;;;1.10;;
29044;SDS011;16133;49.486;12.176;2024-03-25T13:04:45;1.33;;;0.82;;
29044;SDS011;16133;49.486;12.176;2024-03-25T13:07:10;2.42;;;1.13;;
29044;SDS011;16133;49.486;12.176;2024-03-25T13:09:35;5.28;;;0.82;;
29044;SDS011;16133;49.486;12.176;2024-03-25T13:12:01;2.72;;;0.95;;
29044;SDS011;16133;49.486;12.176;2024-03-25T13:14:27;4.78;;;1.50;;
29044;SDS011;16133;49.486;12.176;2024-03-25T13:16:52;4.57;;;1.15;;
29044;SDS011;16133;49.486;12.176;2024-03-25T13:19:18;4.72;;;1.40;;
29044;SDS011;16133;49.486;12.176;2024-03-25T13:21:43;1.58;;;0.90;;
29044;SDS011;16133;49.486;12.176;2024-03-25T13:24:09;1.80;;;1.00;;
29044;SDS011;16133;49.486;12.176;2024-03-25T13:26:34;2.22;;;1.10;;
29044;SDS011;16133;49.486;12.176;2024-03-25T13:29:00;3.70;;;1.30;;
29044;SDS011;16133;49.486;12.176;2024-03-25T13:31:25;3.85;;;1.52;;
29044;SDS011;16133;49.486;12.176;2024-03-25T13:33:51;5.60;;;2.35;;
29044;SDS011;16133;49.486;12.176;2024-03-25T13:36:16;5.97;;;1.38;;
29044;SDS011;16133;49.486;12.176;2024-03-25T13:38:43;5.70;;;1.73;;
29044;SDS011;16133;49.486;12.176;2024-03-25T13:41:08;1.80;;;1.30;;
29044;SDS011;16133;49.486;12.176;2024-03-25T13:43:34;2.25;;;1.10;;
29044;SDS011;16133;49.486;12.176;2024-03-25T13:45:59;3.08;;;1.40;;
29044;SDS011;16133;49.486;12.176;2024-03-25T13:48:25;2.78;;;1.27;;
29044;SDS011;16133;49.486;12.176;2024-03-25T13:50:53;1.92;;;0.90;;
29044;SDS011;16133;49.486;12.176;2024-03-25T13:53:19;2.63;;;1.40;;
29044;SDS011;16133;49.486;12.176;2024-03-25T13:55:44;4.30;;;1.30;;
29044;SDS011;16133;49.486;12.176;2024-03-25T13:58:09;2.47;;;1.30;;
29044;SDS011;16133;49.486;12.176;2024-03-25T14:00:35;2.85;;;1.27;;
29044;SDS011;16133;49.486;12.176;2024-03-25T14:03:01;2.83;;;1.98;;
29044;SDS011;16133;49.486;12.176;2024-03-25T14:05:27;2.33;;;1.35;;
29044;SDS011;16133;49.486;12.176;2024-03-25T14:07:52;3.60;;;1.13;;
29044;SDS011;16133;49.486;12.176;2024-03-25T14:10:17;4.93;;;1.75;;
29044;SDS011;16133;49.486;12.176;2024-03-25T14:12:43;3.00;;;1.27;;
29044;SDS011;16133;49.486;12.176;2024-03-25T14:15:08;2.60;;;0.90;;
29044;SDS011;16133;49.486;12.176;2024-03-25T14:17:34;3.33;;;1.17;;
29044;SDS011;16133;49.486;12.176;2024-03-25T14:20:00;1.63;;;1.10;;
29044;SDS011;16133;49.486;12.176;2024-03-25T14:22:25;4.47;;;1.90;;
29044;SDS011;16133;49.486;12.176;2024-03-25T14:24:51;3.53;;;1.20;;
29044;SDS011;16133;49.486;12.176;2024-03-25T14:27:22;1.63;;;0.98;;
29044;SDS011;16133;49.486;12.176;2024-03-25T14:29:48;2.58;;;0.88;;
29044;SDS011;16133;49.486;12.176;2024-03-25T14:32:13;1.98;;;0.88;;
29044;SDS011;16133;49.486;12.176;2024-03-25T14:34:39;2.75;;;0.98;;